Terminal Aerodrome Forecast
Issued by NWS

Home | Current Version | Previous Version | Text Only | Print | Product List | Glossary On
Versions: 1 2 3 4 5 6 7 8 9 10 11 12 13 14 15 16 17 18 19 20 21 22 23 24 25 26 27 28 29 30 31 32 33 34 35 36 37 38 39 40 41 42 43 44 45
000
FTUS45 KBOU 261248 AAA
TAFBJC
TAF AMD
KBJC 261248Z 2613/2712 10010KT P6SM -SHRA SCT005 OVC010
      TEMPO 2614/2618 3SM -SHRA BR OVC005
     FM261800 09012KT 3SM -SHRA BR SCT005 OVC010
     FM270100 07010KT 2SM -SHRA BR SCT005 OVC008
     FM270600 05010KT 1SM -SHRA BR SCT003 OVC006=

USA.gov is the U.S. government's official web portal to all federal, state and local government web resources and services.